Redrun, Pennsylvania
Current Conditions -  °F | °C
As of 6:53 PM on Friday 21 Nov 2014 (Local Time) from KLNS Reporting Station
Clear Clear  
Wind Chill: 18°   Ceiling: Unl
Heat Index: 25°   Visibility: 10mi
Dew Point: 10°   Wind: 6mph
Humidity: 53%   Direction: 290°WNW
Pressure: 30.5"   Gusts: NA
Location:  40.2484°N, 76.2239°W
Report Text: KLNS 212353Z 29005KT 10SM CLR M04/M12 A3050 RMK AO2 SLP334 T10391122 10017 21039 51021
Loading
Personal Weather Stations






























Interactive Weather Map New forecast layout! Learn more

10-Day Weather Forecast

Advertisements
Track Severe Weather on mobile